sensor_id;sensor_type;location;lat;lon;timestamp;P1;durP1;ratioP1;P2;durP2;ratioP2
11604;SDS011;5858;43.076;25.626;2023-07-22T00:01:33;6.72;;;3.75;;
11604;SDS011;5858;43.076;25.626;2023-07-22T00:04:05;6.80;;;3.33;;
11604;SDS011;5858;43.076;25.626;2023-07-22T00:06:33;8.15;;;4.13;;
11604;SDS011;5858;43.076;25.626;2023-07-22T00:09:03;5.85;;;3.42;;
11604;SDS011;5858;43.076;25.626;2023-07-22T00:11:30;7.53;;;4.20;;
11604;SDS011;5858;43.076;25.626;2023-07-22T00:13:57;8.13;;;4.10;;
11604;SDS011;5858;43.076;25.626;2023-07-22T00:16:25;8.13;;;3.72;;
11604;SDS011;5858;43.076;25.626;2023-07-22T00:18:54;6.63;;;3.47;;
11604;SDS011;5858;43.076;25.626;2023-07-22T00:21:21;6.57;;;4.13;;
11604;SDS011;5858;43.076;25.626;2023-07-22T00:23:49;8.43;;;3.83;;
11604;SDS011;5858;43.076;25.626;2023-07-22T00:26:18;4.88;;;3.70;;
11604;SDS011;5858;43.076;25.626;2023-07-22T00:28:48;6.28;;;3.78;;
11604;SDS011;5858;43.076;25.626;2023-07-22T00:31:15;6.75;;;3.90;;
11604;SDS011;5858;43.076;25.626;2023-07-22T00:33:42;6.85;;;3.97;;
11604;SDS011;5858;43.076;25.626;2023-07-22T00:36:09;4.57;;;3.85;;
11604;SDS011;5858;43.076;25.626;2023-07-22T00:38:41;4.68;;;3.58;;
11604;SDS011;5858;43.076;25.626;2023-07-22T00:41:25;6.35;;;4.25;;
11604;SDS011;5858;43.076;25.626;2023-07-22T00:43:52;6.68;;;4.00;;
11604;SDS011;5858;43.076;25.626;2023-07-22T00:46:19;5.20;;;3.60;;
11604;SDS011;5858;43.076;25.626;2023-07-22T00:48:46;6.05;;;3.92;;
11604;SDS011;5858;43.076;25.626;2023-07-22T00:51:14;5.78;;;3.80;;
11604;SDS011;5858;43.076;25.626;2023-07-22T00:53:42;4.32;;;3.67;;
11604;SDS011;5858;43.076;25.626;2023-07-22T00:56:09;9.77;;;3.95;;
11604;SDS011;5858;43.076;25.626;2023-07-22T00:58:42;5.95;;;3.88;;
11604;SDS011;5858;43.076;25.626;2023-07-22T01:01:14;8.02;;;4.47;;
11604;SDS011;5858;43.076;25.626;2023-07-22T01:03:42;5.43;;;4.00;;
11604;SDS011;5858;43.076;25.626;2023-07-22T01:06:14;6.57;;;4.00;;
11604;SDS011;5858;43.076;25.626;2023-07-22T01:08:50;8.02;;;4.30;;
11604;SDS011;5858;43.076;25.626;2023-07-22T01:11:17;8.27;;;4.07;;
11604;SDS011;5858;43.076;25.626;2023-07-22T01:13:48;5.78;;;4.15;;
11604;SDS011;5858;43.076;25.626;2023-07-22T01:16:16;6.53;;;4.18;;
11604;SDS011;5858;43.076;25.626;2023-07-22T01:18:46;9.07;;;4.50;;
11604;SDS011;5858;43.076;25.626;2023-07-22T01:21:13;6.88;;;4.07;;
11604;SDS011;5858;43.076;25.626;2023-07-22T01:23:43;6.13;;;4.15;;
11604;SDS011;5858;43.076;25.626;2023-07-22T01:26:10;11.77;;;4.55;;
11604;SDS011;5858;43.076;25.626;2023-07-22T01:29:32;7.05;;;4.32;;
11604;SDS011;5858;43.076;25.626;2023-07-22T01:31:57;8.93;;;4.30;;
11604;SDS011;5858;43.076;25.626;2023-07-22T01:34:24;7.15;;;4.70;;
11604;SDS011;5858;43.076;25.626;2023-07-22T01:36:51;8.60;;;4.68;;
11604;SDS011;5858;43.076;25.626;2023-07-22T01:39:20;6.88;;;4.80;;
11604;SDS011;5858;43.076;25.626;2023-07-22T01:41:47;9.32;;;4.78;;
11604;SDS011;5858;43.076;25.626;2023-07-22T01:44:16;8.45;;;5.28;;
11604;SDS011;5858;43.076;25.626;2023-07-22T01:46:43;6.95;;;4.05;;
11604;SDS011;5858;43.076;25.626;2023-07-22T01:49:10;5.82;;;4.72;;
11604;SDS011;5858;43.076;25.626;2023-07-22T01:51:38;5.63;;;4.22;;
11604;SDS011;5858;43.076;25.626;2023-07-22T01:54:07;6.00;;;4.03;;
11604;SDS011;5858;43.076;25.626;2023-07-22T01:56:35;6.10;;;4.07;;
11604;SDS011;5858;43.076;25.626;2023-07-22T01:59:02;7.90;;;4.88;;
11604;SDS011;5858;43.076;25.626;2023-07-22T02:01:29;5.97;;;4.05;;
11604;SDS011;5858;43.076;25.626;2023-07-22T02:03:56;8.25;;;4.38;;
11604;SDS011;5858;43.076;25.626;2023-07-22T02:06:23;9.00;;;4.65;;
11604;SDS011;5858;43.076;25.626;2023-07-22T02:08:50;6.22;;;3.97;;
11604;SDS011;5858;43.076;25.626;2023-07-22T02:11:17;7.38;;;4.40;;
11604;SDS011;5858;43.076;25.626;2023-07-22T02:13:46;7.20;;;3.80;;
11604;SDS011;5858;43.076;25.626;2023-07-22T02:16:18;5.32;;;4.07;;
11604;SDS011;5858;43.076;25.626;2023-07-22T02:18:49;6.13;;;4.15;;
11604;SDS011;5858;43.076;25.626;2023-07-22T02:21:17;4.80;;;4.22;;
11604;SDS011;5858;43.076;25.626;2023-07-22T02:23:46;6.72;;;4.07;;
11604;SDS011;5858;43.076;25.626;2023-07-22T02:26:16;8.27;;;4.60;;
11604;SDS011;5858;43.076;25.626;2023-07-22T02:28:43;9.52;;;3.95;;
11604;SDS011;5858;43.076;25.626;2023-07-22T02:31:13;6.43;;;4.03;;
11604;SDS011;5858;43.076;25.626;2023-07-22T02:33:40;6.70;;;3.83;;
11604;SDS011;5858;43.076;25.626;2023-07-22T02:36:07;8.95;;;4.15;;
11604;SDS011;5858;43.076;25.626;2023-07-22T02:38:34;9.45;;;3.90;;
11604;SDS011;5858;43.076;25.626;2023-07-22T02:41:13;9.77;;;4.10;;
11604;SDS011;5858;43.076;25.626;2023-07-22T02:43:43;10.45;;;3.83;;
11604;SDS011;5858;43.076;25.626;2023-07-22T02:46:10;8.35;;;3.78;;
11604;SDS011;5858;43.076;25.626;2023-07-22T02:51:59;11.90;;;3.92;;
11604;SDS011;5858;43.076;25.626;2023-07-22T02:54:29;6.85;;;4.38;;
11604;SDS011;5858;43.076;25.626;2023-07-22T02:56:58;5.90;;;3.88;;
11604;SDS011;5858;43.076;25.626;2023-07-22T02:59:25;7.45;;;3.10;;
11604;SDS011;5858;43.076;25.626;2023-07-22T03:01:52;10.30;;;3.75;;
11604;SDS011;5858;43.076;25.626;2023-07-22T03:04:20;6.55;;;3.33;;
11604;SDS011;5858;43.076;25.626;2023-07-22T03:06:48;5.47;;;3.20;;
11604;SDS011;5858;43.076;25.626;2023-07-22T03:09:15;7.20;;;4.07;;
11604;SDS011;5858;43.076;25.626;2023-07-22T03:11:42;7.97;;;3.72;;
11604;SDS011;5858;43.076;25.626;2023-07-22T03:14:09;5.07;;;4.20;;
11604;SDS011;5858;43.076;25.626;2023-07-22T03:16:36;6.32;;;3.72;;
11604;SDS011;5858;43.076;25.626;2023-07-22T03:19:03;6.95;;;3.70;;
11604;SDS011;5858;43.076;25.626;2023-07-22T03:21:31;9.30;;;3.60;;
11604;SDS011;5858;43.076;25.626;2023-07-22T03:24:01;10.77;;;4.03;;
11604;SDS011;5858;43.076;25.626;2023-07-22T03:26:28;7.30;;;4.20;;
11604;SDS011;5858;43.076;25.626;2023-07-22T03:28:55;6.88;;;4.07;;
11604;SDS011;5858;43.076;25.626;2023-07-22T03:31:22;8.60;;;3.95;;
11604;SDS011;5858;43.076;25.626;2023-07-22T03:33:49;5.40;;;3.80;;
11604;SDS011;5858;43.076;25.626;2023-07-22T03:36:16;10.02;;;4.03;;
11604;SDS011;5858;43.076;25.626;2023-07-22T03:38:44;11.55;;;4.20;;
11604;SDS011;5858;43.076;25.626;2023-07-22T03:41:11;7.75;;;3.35;;
11604;SDS011;5858;43.076;25.626;2023-07-22T03:43:38;6.93;;;3.50;;
11604;SDS011;5858;43.076;25.626;2023-07-22T03:46:05;6.50;;;3.35;;
11604;SDS011;5858;43.076;25.626;2023-07-22T03:48:32;8.77;;;3.72;;
11604;SDS011;5858;43.076;25.626;2023-07-22T03:51:00;6.40;;;3.50;;
11604;SDS011;5858;43.076;25.626;2023-07-22T03:53:27;6.05;;;3.95;;
11604;SDS011;5858;43.076;25.626;2023-07-22T03:55:58;10.68;;;3.80;;
11604;SDS011;5858;43.076;25.626;2023-07-22T03:58:25;9.35;;;3.90;;
11604;SDS011;5858;43.076;25.626;2023-07-22T04:00:51;10.60;;;3.47;;
11604;SDS011;5858;43.076;25.626;2023-07-22T04:03:21;11.13;;;4.03;;
11604;SDS011;5858;43.076;25.626;2023-07-22T04:05:53;8.50;;;3.60;;
11604;SDS011;5858;43.076;25.626;2023-07-22T04:08:20;8.30;;;3.08;;
11604;SDS011;5858;43.076;25.626;2023-07-22T04:10:51;5.78;;;3.55;;
11604;SDS011;5858;43.076;25.626;2023-07-22T04:13:23;7.35;;;4.13;;
11604;SDS011;5858;43.076;25.626;2023-07-22T04:15:51;11.10;;;3.75;;
11604;SDS011;5858;43.076;25.626;2023-07-22T04:18:18;8.07;;;3.53;;
11604;SDS011;5858;43.076;25.626;2023-07-22T04:20:46;6.45;;;3.30;;
11604;SDS011;5858;43.076;25.626;2023-07-22T04:23:14;9.32;;;4.43;;
11604;SDS011;5858;43.076;25.626;2023-07-22T04:25:41;7.93;;;4.55;;
11604;SDS011;5858;43.076;25.626;2023-07-22T04:28:08;8.93;;;4.43;;
11604;SDS011;5858;43.076;25.626;2023-07-22T04:30:38;13.65;;;5.55;;
11604;SDS011;5858;43.076;25.626;2023-07-22T04:33:06;11.50;;;6.20;;
11604;SDS011;5858;43.076;25.626;2023-07-22T04:35:36;8.52;;;5.82;;
11604;SDS011;5858;43.076;25.626;2023-07-22T04:38:04;15.20;;;7.20;;
11604;SDS011;5858;43.076;25.626;2023-07-22T04:40:31;12.77;;;6.32;;
11604;SDS011;5858;43.076;25.626;2023-07-22T04:43:00;12.13;;;6.72;;
11604;SDS011;5858;43.076;25.626;2023-07-22T04:45:28;11.35;;;5.97;;
11604;SDS011;5858;43.076;25.626;2023-07-22T04:47:56;19.83;;;7.45;;
11604;SDS011;5858;43.076;25.626;2023-07-22T04:50:23;12.00;;;7.70;;
11604;SDS011;5858;43.076;25.626;2023-07-22T04:52:50;12.93;;;7.35;;
11604;SDS011;5858;43.076;25.626;2023-07-22T04:55:17;11.27;;;7.82;;
11604;SDS011;5858;43.076;25.626;2023-07-22T04:57:46;13.30;;;6.78;;
11604;SDS011;5858;43.076;25.626;2023-07-22T05:00:14;21.55;;;7.53;;
11604;SDS011;5858;43.076;25.626;2023-07-22T05:02:44;11.30;;;5.78;;
11604;SDS011;5858;43.076;25.626;2023-07-22T05:05:14;9.75;;;5.30;;
11604;SDS011;5858;43.076;25.626;2023-07-22T05:07:42;8.73;;;4.90;;
11604;SDS011;5858;43.076;25.626;2023-07-22T05:10:13;8.60;;;5.28;;
11604;SDS011;5858;43.076;25.626;2023-07-22T05:12:49;12.40;;;5.47;;
11604;SDS011;5858;43.076;25.626;2023-07-22T05:15:16;13.05;;;6.50;;
11604;SDS011;5858;43.076;25.626;2023-07-22T05:17:43;12.20;;;6.22;;
11604;SDS011;5858;43.076;25.626;2023-07-22T05:20:10;10.10;;;6.22;;
11604;SDS011;5858;43.076;25.626;2023-07-22T05:22:41;8.95;;;5.78;;
11604;SDS011;5858;43.076;25.626;2023-07-22T05:25:08;13.02;;;6.82;;
11604;SDS011;5858;43.076;25.626;2023-07-22T05:27:37;11.57;;;6.53;;
11604;SDS011;5858;43.076;25.626;2023-07-22T05:30:06;9.98;;;6.80;;
11604;SDS011;5858;43.076;25.626;2023-07-22T05:32:36;9.00;;;6.32;;
11604;SDS011;5858;43.076;25.626;2023-07-22T05:35:04;12.25;;;7.43;;
11604;SDS011;5858;43.076;25.626;2023-07-22T05:37:37;12.45;;;6.20;;
11604;SDS011;5858;43.076;25.626;2023-07-22T05:40:09;10.13;;;5.68;;
11604;SDS011;5858;43.076;25.626;2023-07-22T05:42:43;9.02;;;5.15;;
11604;SDS011;5858;43.076;25.626;2023-07-22T05:45:15;10.57;;;4.30;;
11604;SDS011;5858;43.076;25.626;2023-07-22T05:47:43;7.82;;;4.22;;
11604;SDS011;5858;43.076;25.626;2023-07-22T05:50:14;6.95;;;4.32;;
11604;SDS011;5858;43.076;25.626;2023-07-22T05:52:41;8.95;;;4.55;;
11604;SDS011;5858;43.076;25.626;2023-07-22T05:55:13;6.63;;;4.20;;
11604;SDS011;5858;43.076;25.626;2023-07-22T05:57:42;8.13;;;4.22;;
11604;SDS011;5858;43.076;25.626;2023-07-22T06:00:10;9.43;;;4.88;;
11604;SDS011;5858;43.076;25.626;2023-07-22T06:02:41;12.95;;;4.63;;
11604;SDS011;5858;43.076;25.626;2023-07-22T06:05:12;9.13;;;4.45;;
11604;SDS011;5858;43.076;25.626;2023-07-22T06:07:39;7.50;;;4.40;;
11604;SDS011;5858;43.076;25.626;2023-07-22T06:10:06;8.10;;;4.55;;
11604;SDS011;5858;43.076;25.626;2023-07-22T06:12:41;7.07;;;4.78;;
11604;SDS011;5858;43.076;25.626;2023-07-22T06:15:15;7.35;;;4.45;;
11604;SDS011;5858;43.076;25.626;2023-07-22T06:17:54;9.68;;;4.63;;
11604;SDS011;5858;43.076;25.626;2023-07-22T06:20:28;7.75;;;4.65;;
11604;SDS011;5858;43.076;25.626;2023-07-22T06:23:01;7.10;;;4.35;;
11604;SDS011;5858;43.076;25.626;2023-07-22T06:25:28;8.10;;;4.45;;
11604;SDS011;5858;43.076;25.626;2023-07-22T06:28:06;8.65;;;4.18;;
11604;SDS011;5858;43.076;25.626;2023-07-22T06:30:37;7.75;;;4.40;;
11604;SDS011;5858;43.076;25.626;2023-07-22T06:33:17;7.93;;;4.40;;
11604;SDS011;5858;43.076;25.626;2023-07-22T06:38:35;7.72;;;4.68;;
11604;SDS011;5858;43.076;25.626;2023-07-22T06:41:08;6.95;;;4.82;;
11604;SDS011;5858;43.076;25.626;2023-07-22T06:43:38;7.35;;;4.25;;
11604;SDS011;5858;43.076;25.626;2023-07-22T06:46:26;5.05;;;3.92;;
11604;SDS011;5858;43.076;25.626;2023-07-22T06:48:53;7.60;;;4.45;;
11604;SDS011;5858;43.076;25.626;2023-07-22T06:51:20;7.13;;;4.75;;
11604;SDS011;5858;43.076;25.626;2023-07-22T06:53:49;7.20;;;4.13;;
11604;SDS011;5858;43.076;25.626;2023-07-22T06:56:20;8.10;;;4.35;;
11604;SDS011;5858;43.076;25.626;2023-07-22T06:59:02;7.15;;;4.70;;
11604;SDS011;5858;43.076;25.626;2023-07-22T07:01:39;6.57;;;4.90;;
11604;SDS011;5858;43.076;25.626;2023-07-22T07:04:07;8.88;;;4.97;;
11604;SDS011;5858;43.076;25.626;2023-07-22T07:06:34;5.90;;;4.80;;
11604;SDS011;5858;43.076;25.626;2023-07-22T07:09:03;7.53;;;4.70;;
11604;SDS011;5858;43.076;25.626;2023-07-22T07:11:31;8.73;;;5.32;;
11604;SDS011;5858;43.076;25.626;2023-07-22T07:13:58;6.60;;;4.63;;
11604;SDS011;5858;43.076;25.626;2023-07-22T07:16:26;6.40;;;4.65;;
11604;SDS011;5858;43.076;25.626;2023-07-22T07:18:56;8.65;;;4.88;;
11604;SDS011;5858;43.076;25.626;2023-07-22T07:21:24;8.30;;;5.00;;
11604;SDS011;5858;43.076;25.626;2023-07-22T07:23:51;9.00;;;4.45;;
11604;SDS011;5858;43.076;25.626;2023-07-22T07:26:18;7.43;;;3.90;;
11604;SDS011;5858;43.076;25.626;2023-07-22T07:28:46;9.73;;;3.97;;
11604;SDS011;5858;43.076;25.626;2023-07-22T07:31:14;7.50;;;3.72;;
11604;SDS011;5858;43.076;25.626;2023-07-22T07:33:42;8.07;;;4.20;;
11604;SDS011;5858;43.076;25.626;2023-07-22T07:36:09;6.55;;;3.72;;
11604;SDS011;5858;43.076;25.626;2023-07-22T07:38:36;7.28;;;3.72;;
11604;SDS011;5858;43.076;25.626;2023-07-22T07:41:04;4.32;;;3.53;;
11604;SDS011;5858;43.076;25.626;2023-07-22T07:43:33;7.53;;;3.83;;
11604;SDS011;5858;43.076;25.626;2023-07-22T07:46:12;5.55;;;3.50;;
11604;SDS011;5858;43.076;25.626;2023-07-22T07:48:45;4.75;;;3.13;;
11604;SDS011;5858;43.076;25.626;2023-07-22T07:51:12;10.20;;;3.58;;
11604;SDS011;5858;43.076;25.626;2023-07-22T07:53:43;5.38;;;3.38;;
11604;SDS011;5858;43.076;25.626;2023-07-22T07:56:13;7.50;;;3.88;;
11604;SDS011;5858;43.076;25.626;2023-07-22T07:58:41;5.75;;;3.50;;
11604;SDS011;5858;43.076;25.626;2023-07-22T08:01:08;6.30;;;3.20;;
11604;SDS011;5858;43.076;25.626;2023-07-22T08:03:35;11.48;;;3.45;;
11604;SDS011;5858;43.076;25.626;2023-07-22T08:06:04;7.22;;;3.13;;
11604;SDS011;5858;43.076;25.626;2023-07-22T08:08:31;8.77;;;4.10;;
11604;SDS011;5858;43.076;25.626;2023-07-22T08:10:59;8.85;;;4.30;;
11604;SDS011;5858;43.076;25.626;2023-07-22T08:13:26;7.30;;;3.45;;
11604;SDS011;5858;43.076;25.626;2023-07-22T08:15:55;7.20;;;3.30;;
11604;SDS011;5858;43.076;25.626;2023-07-22T08:18:22;7.05;;;3.30;;
11604;SDS011;5858;43.076;25.626;2023-07-22T08:20:50;4.97;;;3.00;;
11604;SDS011;5858;43.076;25.626;2023-07-22T08:23:19;8.18;;;3.10;;
11604;SDS011;5858;43.076;25.626;2023-07-22T08:25:47;4.85;;;2.97;;
11604;SDS011;5858;43.076;25.626;2023-07-22T08:28:14;9.02;;;3.10;;
11604;SDS011;5858;43.076;25.626;2023-07-22T08:30:44;6.65;;;2.83;;
11604;SDS011;5858;43.076;25.626;2023-07-22T08:33:11;6.25;;;3.03;;
11604;SDS011;5858;43.076;25.626;2023-07-22T08:35:38;9.65;;;3.47;;
11604;SDS011;5858;43.076;25.626;2023-07-22T08:38:05;6.82;;;3.50;;
11604;SDS011;5858;43.076;25.626;2023-07-22T08:40:35;5.63;;;3.03;;
11604;SDS011;5858;43.076;25.626;2023-07-22T08:43:07;2.90;;;2.60;;
11604;SDS011;5858;43.076;25.626;2023-07-22T08:45:36;5.85;;;3.00;;
11604;SDS011;5858;43.076;25.626;2023-07-22T08:48:05;9.93;;;3.33;;
11604;SDS011;5858;43.076;25.626;2023-07-22T08:50:37;3.95;;;2.65;;
11604;SDS011;5858;43.076;25.626;2023-07-22T08:53:10;4.57;;;3.20;;
11604;SDS011;5858;43.076;25.626;2023-07-22T08:55:40;6.63;;;3.25;;
11604;SDS011;5858;43.076;25.626;2023-07-22T08:58:08;7.70;;;3.53;;
11604;SDS011;5858;43.076;25.626;2023-07-22T09:00:35;3.67;;;3.13;;
11604;SDS011;5858;43.076;25.626;2023-07-22T09:03:03;6.95;;;3.50;;
11604;SDS011;5858;43.076;25.626;2023-07-22T09:05:31;5.57;;;2.78;;
11604;SDS011;5858;43.076;25.626;2023-07-22T09:08:06;9.68;;;3.30;;
11604;SDS011;5858;43.076;25.626;2023-07-22T09:10:34;9.80;;;3.67;;
11604;SDS011;5858;43.076;25.626;2023-07-22T09:13:06;4.97;;;2.90;;
11604;SDS011;5858;43.076;25.626;2023-07-22T09:15:34;5.10;;;3.30;;
11604;SDS011;5858;43.076;25.626;2023-07-22T09:18:02;6.57;;;3.38;;
11604;SDS011;5858;43.076;25.626;2023-07-22T09:20:33;8.38;;;3.67;;
11604;SDS011;5858;43.076;25.626;2023-07-22T09:23:00;6.03;;;2.90;;
11604;SDS011;5858;43.076;25.626;2023-07-22T09:25:47;4.97;;;3.05;;
11604;SDS011;5858;43.076;25.626;2023-07-22T09:28:24;7.97;;;3.10;;
11604;SDS011;5858;43.076;25.626;2023-07-22T09:31:00;8.65;;;3.30;;
11604;SDS011;5858;43.076;25.626;2023-07-22T09:33:35;8.95;;;2.80;;
11604;SDS011;5858;43.076;25.626;2023-07-22T09:36:04;6.63;;;3.50;;
11604;SDS011;5858;43.076;25.626;2023-07-22T09:38:31;4.85;;;2.90;;
11604;SDS011;5858;43.076;25.626;2023-07-22T09:41:01;6.72;;;3.17;;
11604;SDS011;5858;43.076;25.626;2023-07-22T09:43:29;7.03;;;3.70;;
11604;SDS011;5858;43.076;25.626;2023-07-22T09:46:04;9.00;;;3.72;;
11604;SDS011;5858;43.076;25.626;2023-07-22T09:48:52;5.78;;;3.28;;
11604;SDS011;5858;43.076;25.626;2023-07-22T09:51:26;10.73;;;4.07;;
11604;SDS011;5858;43.076;25.626;2023-07-22T09:54:02;5.57;;;3.30;;
11604;SDS011;5858;43.076;25.626;2023-07-22T09:56:42;8.10;;;3.55;;
11604;SDS011;5858;43.076;25.626;2023-07-22T09:59:12;10.93;;;3.75;;
11604;SDS011;5858;43.076;25.626;2023-07-22T10:01:39;8.77;;;3.35;;
11604;SDS011;5858;43.076;25.626;2023-07-22T10:04:08;9.02;;;3.22;;
11604;SDS011;5858;43.076;25.626;2023-07-22T10:06:36;6.80;;;3.40;;
11604;SDS011;5858;43.076;25.626;2023-07-22T10:09:05;5.95;;;2.78;;
11604;SDS011;5858;43.076;25.626;2023-07-22T10:11:34;5.72;;;3.13;;
11604;SDS011;5858;43.076;25.626;2023-07-22T10:14:01;4.45;;;2.70;;
11604;SDS011;5858;43.076;25.626;2023-07-22T10:16:31;9.10;;;3.13;;
11604;SDS011;5858;43.076;25.626;2023-07-22T10:19:02;5.68;;;3.15;;
11604;SDS011;5858;43.076;25.626;2023-07-22T10:21:31;5.28;;;3.08;;
11604;SDS011;5858;43.076;25.626;2023-07-22T10:24:06;7.50;;;5.28;;
11604;SDS011;5858;43.076;25.626;2023-07-22T10:26:34;7.65;;;3.25;;
11604;SDS011;5858;43.076;25.626;2023-07-22T10:29:09;6.28;;;3.70;;
11604;SDS011;5858;43.076;25.626;2023-07-22T10:31:46;5.32;;;3.63;;
11604;SDS011;5858;43.076;25.626;2023-07-22T10:34:20;6.80;;;3.40;;
11604;SDS011;5858;43.076;25.626;2023-07-22T10:36:47;8.00;;;3.70;;
11604;SDS011;5858;43.076;25.626;2023-07-22T10:39:24;8.55;;;3.70;;
11604;SDS011;5858;43.076;25.626;2023-07-22T10:41:59;6.47;;;3.72;;
11604;SDS011;5858;43.076;25.626;2023-07-22T10:44:33;8.57;;;3.53;;
11604;SDS011;5858;43.076;25.626;2023-07-22T10:47:08;6.28;;;3.55;;
11604;SDS011;5858;43.076;25.626;2023-07-22T10:49:45;7.70;;;3.38;;
11604;SDS011;5858;43.076;25.626;2023-07-22T10:52:14;8.10;;;4.45;;
11604;SDS011;5858;43.076;25.626;2023-07-22T10:54:41;9.77;;;3.53;;
11604;SDS011;5858;43.076;25.626;2023-07-22T10:57:25;8.13;;;3.90;;
11604;SDS011;5858;43.076;25.626;2023-07-22T10:59:57;8.20;;;3.83;;
11604;SDS011;5858;43.076;25.626;2023-07-22T11:02:27;10.20;;;3.78;;
11604;SDS011;5858;43.076;25.626;2023-07-22T11:05:03;9.48;;;3.70;;
11604;SDS011;5858;43.076;25.626;2023-07-22T11:07:34;9.27;;;3.33;;
11604;SDS011;5858;43.076;25.626;2023-07-22T11:10:10;9.70;;;3.63;;
11604;SDS011;5858;43.076;25.626;2023-07-22T11:12:44;6.70;;;3.63;;
11604;SDS011;5858;43.076;25.626;2023-07-22T11:15:20;8.63;;;3.60;;
11604;SDS011;5858;43.076;25.626;2023-07-22T11:17:49;8.02;;;3.13;;
11604;SDS011;5858;43.076;25.626;2023-07-22T11:20:16;5.78;;;3.70;;
11604;SDS011;5858;43.076;25.626;2023-07-22T11:22:43;8.13;;;3.30;;
11604;SDS011;5858;43.076;25.626;2023-07-22T11:25:16;7.35;;;3.70;;
11604;SDS011;5858;43.076;25.626;2023-07-22T11:27:46;7.10;;;3.22;;
11604;SDS011;5858;43.076;25.626;2023-07-22T11:30:13;11.48;;;3.80;;
11604;SDS011;5858;43.076;25.626;2023-07-22T11:32:41;7.25;;;3.42;;
11604;SDS011;5858;43.076;25.626;2023-07-22T11:35:11;5.05;;;3.35;;
11604;SDS011;5858;43.076;25.626;2023-07-22T11:37:44;6.75;;;4.05;;
11604;SDS011;5858;43.076;25.626;2023-07-22T11:40:14;9.10;;;4.32;;
11604;SDS011;5858;43.076;25.626;2023-07-22T11:42:52;6.90;;;3.58;;
11604;SDS011;5858;43.076;25.626;2023-07-22T11:45:26;6.45;;;3.97;;
11604;SDS011;5858;43.076;25.626;2023-07-22T11:47:58;6.47;;;3.80;;
11604;SDS011;5858;43.076;25.626;2023-07-22T11:50:32;8.70;;;3.70;;
11604;SDS011;5858;43.076;25.626;2023-07-22T11:53:02;9.02;;;3.65;;
11604;SDS011;5858;43.076;25.626;2023-07-22T11:55:29;7.68;;;3.53;;
11604;SDS011;5858;43.076;25.626;2023-07-22T11:57:56;9.55;;;4.07;;
11604;SDS011;5858;43.076;25.626;2023-07-22T12:00:23;13.52;;;4.35;;
11604;SDS011;5858;43.076;25.626;2023-07-22T12:02:50;7.78;;;3.78;;
11604;SDS011;5858;43.076;25.626;2023-07-22T12:05:21;8.70;;;3.67;;
11604;SDS011;5858;43.076;25.626;2023-07-22T12:07:52;8.93;;;3.95;;
11604;SDS011;5858;43.076;25.626;2023-07-22T12:10:19;9.80;;;3.75;;
11604;SDS011;5858;43.076;25.626;2023-07-22T12:12:50;9.18;;;4.00;;
11604;SDS011;5858;43.076;25.626;2023-07-22T12:15:18;9.80;;;5.13;;
11604;SDS011;5858;43.076;25.626;2023-07-22T12:17:47;11.43;;;4.40;;
11604;SDS011;5858;43.076;25.626;2023-07-22T12:20:16;6.75;;;3.92;;
11604;SDS011;5858;43.076;25.626;2023-07-22T12:22:44;7.78;;;4.07;;
11604;SDS011;5858;43.076;25.626;2023-07-22T12:25:13;7.15;;;3.85;;
11604;SDS011;5858;43.076;25.626;2023-07-22T12:27:40;9.95;;;3.75;;
11604;SDS011;5858;43.076;25.626;2023-07-22T12:30:07;6.85;;;2.92;;
11604;SDS011;5858;43.076;25.626;2023-07-22T12:32:47;6.47;;;3.08;;
11604;SDS011;5858;43.076;25.626;2023-07-22T12:35:19;8.25;;;4.22;;
11604;SDS011;5858;43.076;25.626;2023-07-22T12:37:47;8.20;;;3.53;;
11604;SDS011;5858;43.076;25.626;2023-07-22T12:40:15;7.07;;;3.30;;
11604;SDS011;5858;43.076;25.626;2023-07-22T12:42:42;7.25;;;3.30;;
11604;SDS011;5858;43.076;25.626;2023-07-22T12:45:12;8.60;;;3.13;;
11604;SDS011;5858;43.076;25.626;2023-07-22T12:47:39;9.25;;;3.80;;
11604;SDS011;5858;43.076;25.626;2023-07-22T12:50:06;5.90;;;3.40;;
11604;SDS011;5858;43.076;25.626;2023-07-22T12:52:34;9.73;;;4.03;;
11604;SDS011;5858;43.076;25.626;2023-07-22T12:55:01;6.28;;;2.70;;
11604;SDS011;5858;43.076;25.626;2023-07-22T12:57:30;8.82;;;3.25;;
11604;SDS011;5858;43.076;25.626;2023-07-22T12:59:57;6.65;;;2.92;;
11604;SDS011;5858;43.076;25.626;2023-07-22T13:02:24;11.38;;;3.22;;
11604;SDS011;5858;43.076;25.626;2023-07-22T13:04:51;4.93;;;2.75;;
11604;SDS011;5858;43.076;25.626;2023-07-22T13:07:19;9.63;;;2.75;;
11604;SDS011;5858;43.076;25.626;2023-07-22T13:09:55;5.45;;;2.83;;
11604;SDS011;5858;43.076;25.626;2023-07-22T13:12:30;7.43;;;3.10;;
11604;SDS011;5858;43.076;25.626;2023-07-22T13:14:56;8.18;;;3.25;;
11604;SDS011;5858;43.076;25.626;2023-07-22T13:17:23;6.68;;;3.03;;
11604;SDS011;5858;43.076;25.626;2023-07-22T13:19:50;6.40;;;3.13;;
11604;SDS011;5858;43.076;25.626;2023-07-22T13:22:17;5.95;;;3.20;;
11604;SDS011;5858;43.076;25.626;2023-07-22T13:24:46;9.27;;;3.90;;
11604;SDS011;5858;43.076;25.626;2023-07-22T13:27:13;6.80;;;3.17;;
11604;SDS011;5858;43.076;25.626;2023-07-22T13:29:43;6.95;;;3.15;;
11604;SDS011;5858;43.076;25.626;2023-07-22T13:32:10;6.28;;;3.05;;
11604;SDS011;5858;43.076;25.626;2023-07-22T13:34:37;8.30;;;3.20;;
11604;SDS011;5858;43.076;25.626;2023-07-22T13:37:07;7.15;;;3.22;;
11604;SDS011;5858;43.076;25.626;2023-07-22T13:39:34;6.55;;;3.88;;
11604;SDS011;5858;43.076;25.626;2023-07-22T13:42:01;8.00;;;3.40;;
11604;SDS011;5858;43.076;25.626;2023-07-22T13:44:28;8.30;;;4.10;;
11604;SDS011;5858;43.076;25.626;2023-07-22T13:46:57;9.73;;;3.65;;
11604;SDS011;5858;43.076;25.626;2023-07-22T13:49:29;8.93;;;3.55;;
11604;SDS011;5858;43.076;25.626;2023-07-22T13:52:03;8.75;;;3.65;;
11604;SDS011;5858;43.076;25.626;2023-07-22T13:54:55;8.43;;;3.67;;
11604;SDS011;5858;43.076;25.626;2023-07-22T13:57:24;7.45;;;3.08;;
11604;SDS011;5858;43.076;25.626;2023-07-22T13:59:53;7.57;;;3.50;;
11604;SDS011;5858;43.076;25.626;2023-07-22T14:02:25;7.25;;;3.40;;
11604;SDS011;5858;43.076;25.626;2023-07-22T14:04:52;6.30;;;3.35;;
11604;SDS011;5858;43.076;25.626;2023-07-22T14:07:26;11.75;;;3.72;;
11604;SDS011;5858;43.076;25.626;2023-07-22T14:09:53;7.57;;;4.10;;
11604;SDS011;5858;43.076;25.626;2023-07-22T14:12:21;6.03;;;3.17;;
11604;SDS011;5858;43.076;25.626;2023-07-22T14:14:48;8.80;;;3.58;;
11604;SDS011;5858;43.076;25.626;2023-07-22T14:17:15;9.18;;;3.15;;
11604;SDS011;5858;43.076;25.626;2023-07-22T14:19:43;5.85;;;3.53;;
11604;SDS011;5858;43.076;25.626;2023-07-22T14:22:11;9.95;;;3.42;;
11604;SDS011;5858;43.076;25.626;2023-07-22T14:24:38;8.18;;;3.40;;
11604;SDS011;5858;43.076;25.626;2023-07-22T14:27:05;7.57;;;3.45;;
11604;SDS011;5858;43.076;25.626;2023-07-22T14:29:32;8.43;;;3.75;;
11604;SDS011;5858;43.076;25.626;2023-07-22T14:32:00;7.10;;;3.47;;
11604;SDS011;5858;43.076;25.626;2023-07-22T14:34:28;7.78;;;3.92;;
11604;SDS011;5858;43.076;25.626;2023-07-22T14:36:59;8.40;;;3.65;;
11604;SDS011;5858;43.076;25.626;2023-07-22T14:39:29;8.57;;;4.13;;
11604;SDS011;5858;43.076;25.626;2023-07-22T14:42:06;8.57;;;3.92;;
11604;SDS011;5858;43.076;25.626;2023-07-22T14:44:33;10.13;;;4.25;;
11604;SDS011;5858;43.076;25.626;2023-07-22T14:47:01;10.15;;;4.35;;
11604;SDS011;5858;43.076;25.626;2023-07-22T14:49:28;11.20;;;4.60;;
11604;SDS011;5858;43.076;25.626;2023-07-22T14:51:56;7.25;;;4.40;;
11604;SDS011;5858;43.076;25.626;2023-07-22T14:54:25;7.35;;;4.05;;
11604;SDS011;5858;43.076;25.626;2023-07-22T14:56:52;10.50;;;4.65;;
11604;SDS011;5858;43.076;25.626;2023-07-22T14:59:21;9.27;;;4.70;;
11604;SDS011;5858;43.076;25.626;2023-07-22T15:01:48;10.27;;;5.00;;
11604;SDS011;5858;43.076;25.626;2023-07-22T15:04:21;13.35;;;4.72;;
11604;SDS011;5858;43.076;25.626;2023-07-22T15:06:49;9.73;;;4.55;;